sensor_id;sensor_type;location;lat;lon;timestamp;P1;durP1;ratioP1;P2;durP2;ratioP2
76039;SDS011;64736;50.462;4.850;2023-02-28T00:00:28;11.75;;;8.30;;
76039;SDS011;64736;50.462;4.850;2023-02-28T00:02:54;12.35;;;9.55;;
76039;SDS011;64736;50.462;4.850;2023-02-28T00:05:20;13.10;;;9.48;;
76039;SDS011;64736;50.462;4.850;2023-02-28T00:07:48;13.65;;;9.43;;
76039;SDS011;64736;50.462;4.850;2023-02-28T00:10:15;13.55;;;9.18;;
76039;SDS011;64736;50.462;4.850;2023-02-28T00:12:46;15.18;;;8.15;;
76039;SDS011;64736;50.462;4.850;2023-02-28T00:15:13;14.95;;;9.43;;
76039;SDS011;64736;50.462;4.850;2023-02-28T00:17:39;13.27;;;8.35;;
76039;SDS011;64736;50.462;4.850;2023-02-28T00:20:05;13.65;;;8.82;;
76039;SDS011;64736;50.462;4.850;2023-02-28T00:22:41;13.10;;;9.63;;
76039;SDS011;64736;50.462;4.850;2023-02-28T00:25:09;11.82;;;8.43;;
76039;SDS011;64736;50.462;4.850;2023-02-28T00:27:37;14.70;;;8.77;;
76039;SDS011;64736;50.462;4.850;2023-02-28T00:30:05;13.93;;;8.98;;
76039;SDS011;64736;50.462;4.850;2023-02-28T00:32:32;11.60;;;8.02;;
76039;SDS011;64736;50.462;4.850;2023-02-28T00:34:59;12.80;;;9.05;;
76039;SDS011;64736;50.462;4.850;2023-02-28T00:37:25;12.25;;;8.07;;
76039;SDS011;64736;50.462;4.850;2023-02-28T00:39:51;13.38;;;8.80;;
76039;SDS011;64736;50.462;4.850;2023-02-28T00:42:17;11.77;;;8.20;;
76039;SDS011;64736;50.462;4.850;2023-02-28T00:44:42;12.55;;;9.43;;
76039;SDS011;64736;50.462;4.850;2023-02-28T00:47:08;13.00;;;8.38;;
76039;SDS011;64736;50.462;4.850;2023-02-28T00:49:34;10.68;;;8.05;;
76039;SDS011;64736;50.462;4.850;2023-02-28T00:51:59;11.35;;;8.57;;
76039;SDS011;64736;50.462;4.850;2023-02-28T00:54:25;14.55;;;8.98;;
76039;SDS011;64736;50.462;4.850;2023-02-28T00:56:51;11.13;;;8.00;;
76039;SDS011;64736;50.462;4.850;2023-02-28T00:59:17;12.93;;;8.15;;
76039;SDS011;64736;50.462;4.850;2023-02-28T01:01:44;15.02;;;8.57;;
76039;SDS011;64736;50.462;4.850;2023-02-28T01:04:11;14.02;;;8.50;;
76039;SDS011;64736;50.462;4.850;2023-02-28T01:06:37;13.02;;;9.00;;
76039;SDS011;64736;50.462;4.850;2023-02-28T01:09:04;12.32;;;8.00;;
76039;SDS011;64736;50.462;4.850;2023-02-28T01:11:30;13.55;;;7.88;;
76039;SDS011;64736;50.462;4.850;2023-02-28T01:13:57;10.60;;;7.70;;
76039;SDS011;64736;50.462;4.850;2023-02-28T01:16:23;12.98;;;8.10;;
76039;SDS011;64736;50.462;4.850;2023-02-28T01:18:49;12.65;;;8.85;;
76039;SDS011;64736;50.462;4.850;2023-02-28T01:21:16;13.38;;;8.15;;
76039;SDS011;64736;50.462;4.850;2023-02-28T01:23:43;13.07;;;8.07;;
76039;SDS011;64736;50.462;4.850;2023-02-28T01:26:14;14.48;;;8.63;;
76039;SDS011;64736;50.462;4.850;2023-02-28T01:28:41;13.07;;;8.10;;
76039;SDS011;64736;50.462;4.850;2023-02-28T01:31:07;12.75;;;7.95;;
76039;SDS011;64736;50.462;4.850;2023-02-28T01:33:34;11.48;;;8.25;;
76039;SDS011;64736;50.462;4.850;2023-02-28T01:36:09;11.60;;;7.88;;
76039;SDS011;64736;50.462;4.850;2023-02-28T01:38:37;11.95;;;7.70;;
76039;SDS011;64736;50.462;4.850;2023-02-28T01:41:03;13.73;;;8.90;;
76039;SDS011;64736;50.462;4.850;2023-02-28T01:43:31;11.60;;;8.13;;
76039;SDS011;64736;50.462;4.850;2023-02-28T01:46:17;13.15;;;8.82;;
76039;SDS011;64736;50.462;4.850;2023-02-28T01:48:47;14.30;;;8.68;;
76039;SDS011;64736;50.462;4.850;2023-02-28T01:51:22;13.70;;;8.27;;
76039;SDS011;64736;50.462;4.850;2023-02-28T01:54:05;10.90;;;8.23;;
76039;SDS011;64736;50.462;4.850;2023-02-28T01:56:39;10.27;;;7.20;;
76039;SDS011;64736;50.462;4.850;2023-02-28T01:59:11;14.25;;;7.72;;
76039;SDS011;64736;50.462;4.850;2023-02-28T02:01:39;13.05;;;8.07;;
76039;SDS011;64736;50.462;4.850;2023-02-28T02:04:05;11.45;;;7.95;;
76039;SDS011;64736;50.462;4.850;2023-02-28T02:06:35;10.63;;;7.80;;
76039;SDS011;64736;50.462;4.850;2023-02-28T02:09:03;11.07;;;7.18;;
76039;SDS011;64736;50.462;4.850;2023-02-28T02:11:29;10.98;;;7.97;;
76039;SDS011;64736;50.462;4.850;2023-02-28T02:37:38;12.25;;;7.18;;
76039;SDS011;64736;50.462;4.850;2023-02-28T02:42:18;11.52;;;7.43;;
76039;SDS011;64736;50.462;4.850;2023-02-28T02:45:06;8.20;;;6.18;;
76039;SDS011;64736;50.462;4.850;2023-02-28T02:47:41;9.75;;;6.63;;
76039;SDS011;64736;50.462;4.850;2023-02-28T02:50:11;10.32;;;6.70;;
76039;SDS011;64736;50.462;4.850;2023-02-28T02:52:46;9.57;;;6.60;;
76039;SDS011;64736;50.462;4.850;2023-02-28T02:55:23;11.02;;;7.03;;
76039;SDS011;64736;50.462;4.850;2023-02-28T02:57:54;10.00;;;6.80;;
76039;SDS011;64736;50.462;4.850;2023-02-28T03:00:30;9.50;;;6.47;;
76039;SDS011;64736;50.462;4.850;2023-02-28T03:03:03;9.48;;;6.22;;
76039;SDS011;64736;50.462;4.850;2023-02-28T03:05:49;9.93;;;6.93;;
76039;SDS011;64736;50.462;4.850;2023-02-28T03:08:16;10.77;;;6.78;;
76039;SDS011;64736;50.462;4.850;2023-02-28T03:10:46;9.55;;;5.80;;
76039;SDS011;64736;50.462;4.850;2023-02-28T03:27:11;10.82;;;6.90;;
76039;SDS011;64736;50.462;4.850;2023-02-28T03:31:03;11.32;;;7.32;;
76039;SDS011;64736;50.462;4.850;2023-02-28T03:35:43;8.90;;;6.18;;
76039;SDS011;64736;50.462;4.850;2023-02-28T03:41:09;9.70;;;6.70;;
76039;SDS011;64736;50.462;4.850;2023-02-28T03:43:48;11.45;;;6.38;;
76039;SDS011;64736;50.462;4.850;2023-02-28T03:46:29;11.25;;;6.75;;
76039;SDS011;64736;50.462;4.850;2023-02-28T03:49:06;8.40;;;5.75;;
76039;SDS011;64736;50.462;4.850;2023-02-28T03:51:42;11.23;;;7.47;;
76039;SDS011;64736;50.462;4.850;2023-02-28T03:54:12;11.23;;;6.90;;
76039;SDS011;64736;50.462;4.850;2023-02-28T03:57:04;11.70;;;7.38;;
76039;SDS011;64736;50.462;4.850;2023-02-28T03:59:37;11.18;;;7.35;;
76039;SDS011;64736;50.462;4.850;2023-02-28T04:02:09;11.02;;;7.25;;
76039;SDS011;64736;50.462;4.850;2023-02-28T04:04:35;11.52;;;7.10;;
76039;SDS011;64736;50.462;4.850;2023-02-28T04:07:03;9.18;;;6.45;;
76039;SDS011;64736;50.462;4.850;2023-02-28T04:09:33;10.90;;;7.15;;
76039;SDS011;64736;50.462;4.850;2023-02-28T04:11:59;8.65;;;6.22;;
76039;SDS011;64736;50.462;4.850;2023-02-28T04:14:25;9.05;;;6.15;;
76039;SDS011;64736;50.462;4.850;2023-02-28T04:16:54;9.80;;;6.10;;
76039;SDS011;64736;50.462;4.850;2023-02-28T04:19:19;10.98;;;6.53;;
76039;SDS011;64736;50.462;4.850;2023-02-28T04:21:54;10.98;;;6.25;;
76039;SDS011;64736;50.462;4.850;2023-02-28T04:24:24;8.52;;;6.80;;
76039;SDS011;64736;50.462;4.850;2023-02-28T04:26:52;10.00;;;6.65;;
76039;SDS011;64736;50.462;4.850;2023-02-28T04:29:21;10.98;;;6.68;;
76039;SDS011;64736;50.462;4.850;2023-02-28T04:31:51;9.40;;;7.00;;
76039;SDS011;64736;50.462;4.850;2023-02-28T04:34:23;9.57;;;6.72;;
76039;SDS011;64736;50.462;4.850;2023-02-28T04:36:50;12.15;;;6.75;;
76039;SDS011;64736;50.462;4.850;2023-02-28T04:39:21;10.45;;;6.55;;
76039;SDS011;64736;50.462;4.850;2023-02-28T04:41:48;10.63;;;6.78;;
76039;SDS011;64736;50.462;4.850;2023-02-28T04:44:14;11.63;;;6.93;;
76039;SDS011;64736;50.462;4.850;2023-02-28T04:46:39;9.95;;;6.93;;
76039;SDS011;64736;50.462;4.850;2023-02-28T04:49:06;12.70;;;6.55;;
76039;SDS011;64736;50.462;4.850;2023-02-28T04:51:31;10.02;;;6.38;;
76039;SDS011;64736;50.462;4.850;2023-02-28T04:53:57;10.73;;;6.60;;
76039;SDS011;64736;50.462;4.850;2023-02-28T04:56:23;10.80;;;7.07;;
76039;SDS011;64736;50.462;4.850;2023-02-28T04:58:49;11.90;;;7.38;;
76039;SDS011;64736;50.462;4.850;2023-02-28T05:01:20;10.68;;;6.57;;
76039;SDS011;64736;50.462;4.850;2023-02-28T05:03:52;9.73;;;6.75;;
76039;SDS011;64736;50.462;4.850;2023-02-28T05:06:19;13.27;;;7.20;;
76039;SDS011;64736;50.462;4.850;2023-02-28T05:08:46;12.43;;;7.15;;
76039;SDS011;64736;50.462;4.850;2023-02-28T05:11:22;9.13;;;6.32;;
76039;SDS011;64736;50.462;4.850;2023-02-28T05:14:00;9.20;;;7.72;;
76039;SDS011;64736;50.462;4.850;2023-02-28T05:16:30;13.88;;;8.85;;
76039;SDS011;64736;50.462;4.850;2023-02-28T05:18:57;10.15;;;6.88;;
76039;SDS011;64736;50.462;4.850;2023-02-28T05:23:49;10.70;;;8.27;;
76039;SDS011;64736;50.462;4.850;2023-02-28T05:26:15;9.55;;;6.50;;
76039;SDS011;64736;50.462;4.850;2023-02-28T05:28:40;9.40;;;6.63;;
76039;SDS011;64736;50.462;4.850;2023-02-28T05:31:11;11.52;;;7.10;;
76039;SDS011;64736;50.462;4.850;2023-02-28T05:33:37;12.85;;;7.35;;
76039;SDS011;64736;50.462;4.850;2023-02-28T05:36:03;13.23;;;7.65;;
76039;SDS011;64736;50.462;4.850;2023-02-28T05:38:29;11.48;;;7.68;;
76039;SDS011;64736;50.462;4.850;2023-02-28T05:40:54;11.85;;;8.00;;
76039;SDS011;64736;50.462;4.850;2023-02-28T05:43:21;11.05;;;7.70;;
76039;SDS011;64736;50.462;4.850;2023-02-28T05:45:48;11.57;;;6.95;;
76039;SDS011;64736;50.462;4.850;2023-02-28T05:48:15;12.38;;;7.40;;
76039;SDS011;64736;50.462;4.850;2023-02-28T05:50:41;12.02;;;8.20;;
76039;SDS011;64736;50.462;4.850;2023-02-28T05:53:07;9.50;;;6.47;;
76039;SDS011;64736;50.462;4.850;2023-02-28T05:55:34;11.43;;;7.03;;
76039;SDS011;64736;50.462;4.850;2023-02-28T05:58:01;12.27;;;7.80;;
76039;SDS011;64736;50.462;4.850;2023-02-28T06:00:26;13.90;;;8.63;;
76039;SDS011;64736;50.462;4.850;2023-02-28T06:02:52;12.32;;;7.60;;
76039;SDS011;64736;50.462;4.850;2023-02-28T06:05:21;10.40;;;7.30;;
76039;SDS011;64736;50.462;4.850;2023-02-28T06:07:47;12.15;;;8.48;;
76039;SDS011;64736;50.462;4.850;2023-02-28T06:10:13;10.85;;;6.95;;
76039;SDS011;64736;50.462;4.850;2023-02-28T06:12:39;12.23;;;8.18;;
76039;SDS011;64736;50.462;4.850;2023-02-28T06:15:07;9.73;;;7.03;;
76039;SDS011;64736;50.462;4.850;2023-02-28T06:17:37;12.18;;;7.30;;
76039;SDS011;64736;50.462;4.850;2023-02-28T06:20:03;12.20;;;7.35;;
76039;SDS011;64736;50.462;4.850;2023-02-28T06:22:29;11.68;;;7.10;;
76039;SDS011;64736;50.462;4.850;2023-02-28T06:24:56;12.10;;;6.57;;
76039;SDS011;64736;50.462;4.850;2023-02-28T06:27:22;8.88;;;6.47;;
76039;SDS011;64736;50.462;4.850;2023-02-28T06:29:48;11.40;;;7.25;;
76039;SDS011;64736;50.462;4.850;2023-02-28T06:32:14;11.93;;;6.93;;
76039;SDS011;64736;50.462;4.850;2023-02-28T06:34:39;13.18;;;7.63;;
76039;SDS011;64736;50.462;4.850;2023-02-28T06:37:05;10.70;;;7.47;;
76039;SDS011;64736;50.462;4.850;2023-02-28T06:39:31;11.45;;;7.55;;
76039;SDS011;64736;50.462;4.850;2023-02-28T06:41:57;10.68;;;7.18;;
76039;SDS011;64736;50.462;4.850;2023-02-28T06:44:23;13.27;;;8.30;;
76039;SDS011;64736;50.462;4.850;2023-02-28T06:46:49;12.02;;;7.88;;
76039;SDS011;64736;50.462;4.850;2023-02-28T06:49:14;13.70;;;7.90;;
76039;SDS011;64736;50.462;4.850;2023-02-28T06:51:41;13.05;;;9.30;;
76039;SDS011;64736;50.462;4.850;2023-02-28T06:54:11;10.73;;;7.90;;
76039;SDS011;64736;50.462;4.850;2023-02-28T06:56:37;16.13;;;9.15;;
76039;SDS011;64736;50.462;4.850;2023-02-28T06:59:03;12.52;;;8.38;;
76039;SDS011;64736;50.462;4.850;2023-02-28T07:01:29;13.82;;;8.20;;
76039;SDS011;64736;50.462;4.850;2023-02-28T07:03:57;13.70;;;9.30;;
76039;SDS011;64736;50.462;4.850;2023-02-28T07:06:25;12.45;;;7.82;;
76039;SDS011;64736;50.462;4.850;2023-02-28T07:08:52;15.85;;;8.85;;
76039;SDS011;64736;50.462;4.850;2023-02-28T07:11:19;12.57;;;8.40;;
76039;SDS011;64736;50.462;4.850;2023-02-28T07:13:48;13.40;;;7.72;;
76039;SDS011;64736;50.462;4.850;2023-02-28T07:16:14;13.05;;;9.10;;
76039;SDS011;64736;50.462;4.850;2023-02-28T07:18:40;14.88;;;9.05;;
76039;SDS011;64736;50.462;4.850;2023-02-28T07:21:07;14.07;;;9.60;;
76039;SDS011;64736;50.462;4.850;2023-02-28T07:23:34;13.85;;;10.23;;
76039;SDS011;64736;50.462;4.850;2023-02-28T07:26:03;16.53;;;10.43;;
76039;SDS011;64736;50.462;4.850;2023-02-28T07:28:30;12.27;;;9.13;;
76039;SDS011;64736;50.462;4.850;2023-02-28T07:30:56;15.63;;;10.25;;
76039;SDS011;64736;50.462;4.850;2023-02-28T07:33:21;13.38;;;9.90;;
76039;SDS011;64736;50.462;4.850;2023-02-28T07:35:49;13.82;;;10.07;;
76039;SDS011;64736;50.462;4.850;2023-02-28T07:38:14;13.50;;;9.43;;
76039;SDS011;64736;50.462;4.850;2023-02-28T07:40:40;15.07;;;9.90;;
76039;SDS011;64736;50.462;4.850;2023-02-28T07:43:06;13.65;;;10.48;;
76039;SDS011;64736;50.462;4.850;2023-02-28T07:45:32;14.35;;;10.15;;
76039;SDS011;64736;50.462;4.850;2023-02-28T07:47:59;16.05;;;11.23;;
76039;SDS011;64736;50.462;4.850;2023-02-28T07:50:25;13.18;;;9.20;;
76039;SDS011;64736;50.462;4.850;2023-02-28T07:52:54;16.33;;;9.85;;
76039;SDS011;64736;50.462;4.850;2023-02-28T07:55:20;13.77;;;9.02;;
76039;SDS011;64736;50.462;4.850;2023-02-28T07:57:46;14.55;;;10.52;;
76039;SDS011;64736;50.462;4.850;2023-02-28T08:00:11;13.48;;;7.88;;
76039;SDS011;64736;50.462;4.850;2023-02-28T08:02:38;13.73;;;10.88;;
76039;SDS011;64736;50.462;4.850;2023-02-28T08:05:05;17.02;;;9.27;;
76039;SDS011;64736;50.462;4.850;2023-02-28T08:07:31;13.30;;;8.32;;
76039;SDS011;64736;50.462;4.850;2023-02-28T08:09:58;9.20;;;7.68;;
76039;SDS011;64736;50.462;4.850;2023-02-28T08:12:24;14.27;;;7.93;;
76039;SDS011;64736;50.462;4.850;2023-02-28T08:14:50;10.00;;;6.25;;
76039;SDS011;64736;50.462;4.850;2023-02-28T08:17:16;12.60;;;8.95;;
76039;SDS011;64736;50.462;4.850;2023-02-28T08:19:42;13.02;;;8.32;;
76039;SDS011;64736;50.462;4.850;2023-02-28T08:22:10;15.38;;;9.55;;
76039;SDS011;64736;50.462;4.850;2023-02-28T08:24:36;13.88;;;8.80;;
76039;SDS011;64736;50.462;4.850;2023-02-28T08:27:01;10.30;;;7.07;;
76039;SDS011;64736;50.462;4.850;2023-02-28T08:29:27;16.30;;;11.75;;
76039;SDS011;64736;50.462;4.850;2023-02-28T08:31:53;14.10;;;9.18;;
76039;SDS011;64736;50.462;4.850;2023-02-28T08:34:18;10.43;;;6.38;;
76039;SDS011;64736;50.462;4.850;2023-02-28T08:36:44;15.88;;;9.25;;
76039;SDS011;64736;50.462;4.850;2023-02-28T08:39:11;13.23;;;8.73;;
76039;SDS011;64736;50.462;4.850;2023-02-28T08:41:37;16.70;;;9.73;;
76039;SDS011;64736;50.462;4.850;2023-02-28T08:44:03;14.60;;;9.32;;
76039;SDS011;64736;50.462;4.850;2023-02-28T08:46:28;12.57;;;8.40;;
76039;SDS011;64736;50.462;4.850;2023-02-28T08:48:55;10.52;;;7.40;;
76039;SDS011;64736;50.462;4.850;2023-02-28T08:51:25;12.63;;;9.20;;
76039;SDS011;64736;50.462;4.850;2023-02-28T08:53:52;9.60;;;7.13;;
76039;SDS011;64736;50.462;4.850;2023-02-28T08:56:19;13.18;;;9.55;;
76039;SDS011;64736;50.462;4.850;2023-02-28T08:58:46;11.38;;;7.28;;
76039;SDS011;64736;50.462;4.850;2023-02-28T09:01:13;12.98;;;9.38;;
76039;SDS011;64736;50.462;4.850;2023-02-28T09:03:44;11.32;;;8.50;;
76039;SDS011;64736;50.462;4.850;2023-02-28T09:06:11;11.32;;;6.00;;
76039;SDS011;64736;50.462;4.850;2023-02-28T09:08:37;8.50;;;6.57;;
76039;SDS011;64736;50.462;4.850;2023-02-28T09:11:03;8.75;;;6.40;;
76039;SDS011;64736;50.462;4.850;2023-02-28T09:13:30;9.52;;;6.38;;
76039;SDS011;64736;50.462;4.850;2023-02-28T09:16:01;10.18;;;6.68;;
76039;SDS011;64736;50.462;4.850;2023-02-28T09:18:28;10.20;;;7.28;;
76039;SDS011;64736;50.462;4.850;2023-02-28T09:20:54;9.85;;;6.28;;
76039;SDS011;64736;50.462;4.850;2023-02-28T09:23:21;8.07;;;5.57;;
76039;SDS011;64736;50.462;4.850;2023-02-28T09:25:48;10.43;;;7.05;;
76039;SDS011;64736;50.462;4.850;2023-02-28T09:28:19;6.55;;;4.22;;
76039;SDS011;64736;50.462;4.850;2023-02-28T09:30:46;11.88;;;6.88;;
76039;SDS011;64736;50.462;4.850;2023-02-28T09:33:13;9.25;;;7.38;;
76039;SDS011;64736;50.462;4.850;2023-02-28T09:35:39;14.02;;;9.63;;
76039;SDS011;64736;50.462;4.850;2023-02-28T09:38:05;8.93;;;5.75;;
76039;SDS011;64736;50.462;4.850;2023-02-28T09:40:35;11.05;;;6.60;;
76039;SDS011;64736;50.462;4.850;2023-02-28T09:43:04;9.60;;;7.22;;
76039;SDS011;64736;50.462;4.850;2023-02-28T09:45:32;7.10;;;5.18;;
76039;SDS011;64736;50.462;4.850;2023-02-28T09:48:03;10.25;;;6.63;;
76039;SDS011;64736;50.462;4.850;2023-02-28T09:50:48;8.80;;;6.65;;
76039;SDS011;64736;50.462;4.850;2023-02-28T10:10:23;12.20;;;6.13;;
76039;SDS011;64736;50.462;4.850;2023-02-28T10:12:53;7.78;;;4.97;;
76039;SDS011;64736;50.462;4.850;2023-02-28T10:15:22;7.55;;;5.63;;
76039;SDS011;64736;50.462;4.850;2023-02-28T10:17:56;6.07;;;4.47;;
76039;SDS011;64736;50.462;4.850;2023-02-28T10:20:26;8.30;;;5.68;;
76039;SDS011;64736;50.462;4.850;2023-02-28T10:23:20;7.32;;;4.18;;
76039;SDS011;64736;50.462;4.850;2023-02-28T10:25:52;7.75;;;5.97;;
76039;SDS011;64736;50.462;4.850;2023-02-28T10:28:26;8.15;;;5.82;;
76039;SDS011;64736;50.462;4.850;2023-02-28T10:30:54;7.90;;;6.13;;
76039;SDS011;64736;50.462;4.850;2023-02-28T10:35:57;8.50;;;4.85;;
76039;SDS011;64736;50.462;4.850;2023-02-28T10:38:24;8.13;;;4.85;;
76039;SDS011;64736;50.462;4.850;2023-02-28T10:41:02;8.80;;;5.00;;
76039;SDS011;64736;50.462;4.850;2023-02-28T10:43:33;10.35;;;5.25;;
76039;SDS011;64736;50.462;4.850;2023-02-28T10:51:11;7.03;;;4.60;;
76039;SDS011;64736;50.462;4.850;2023-02-28T10:53:53;7.20;;;5.40;;
76039;SDS011;64736;50.462;4.850;2023-02-28T10:56:24;8.20;;;5.38;;
76039;SDS011;64736;50.462;4.850;2023-02-28T11:01:44;8.73;;;5.88;;
76039;SDS011;64736;50.462;4.850;2023-02-28T11:04:18;10.20;;;5.45;;
76039;SDS011;64736;50.462;4.850;2023-02-28T11:09:46;7.95;;;5.72;;
76039;SDS011;64736;50.462;4.850;2023-02-28T11:15:21;6.30;;;3.92;;
76039;SDS011;64736;50.462;4.850;2023-02-28T11:17:57;5.20;;;3.58;;
76039;SDS011;64736;50.462;4.850;2023-02-28T11:20:32;9.40;;;4.40;;
76039;SDS011;64736;50.462;4.850;2023-02-28T11:23:00;8.40;;;5.15;;
76039;SDS011;64736;50.462;4.850;2023-02-28T11:25:35;6.40;;;3.97;;
76039;SDS011;64736;50.462;4.850;2023-02-28T11:28:04;6.80;;;4.32;;
76039;SDS011;64736;50.462;4.850;2023-02-28T11:30:38;7.35;;;3.03;;
76039;SDS011;64736;50.462;4.850;2023-02-28T11:33:18;6.38;;;4.22;;
76039;SDS011;64736;50.462;4.850;2023-02-28T11:35:48;6.32;;;3.90;;
76039;SDS011;64736;50.462;4.850;2023-02-28T11:38:15;7.88;;;4.40;;
76039;SDS011;64736;50.462;4.850;2023-02-28T11:43:30;7.13;;;4.18;;
76039;SDS011;64736;50.462;4.850;2023-02-28T11:52:20;5.95;;;3.13;;
76039;SDS011;64736;50.462;4.850;2023-02-28T11:55:00;5.00;;;2.97;;
76039;SDS011;64736;50.462;4.850;2023-02-28T12:05:50;9.55;;;4.47;;
76039;SDS011;64736;50.462;4.850;2023-02-28T12:11:37;6.88;;;4.22;;
76039;SDS011;64736;50.462;4.850;2023-02-28T12:19:48;8.63;;;5.45;;
76039;SDS011;64736;50.462;4.850;2023-02-28T12:22:40;6.35;;;4.45;;
76039;SDS011;64736;50.462;4.850;2023-02-28T12:28:13;6.97;;;3.42;;
76039;SDS011;64736;50.462;4.850;2023-02-28T12:30:54;7.32;;;4.63;;
76039;SDS011;64736;50.462;4.850;2023-02-28T12:33:33;6.63;;;3.90;;
76039;SDS011;64736;50.462;4.850;2023-02-28T12:36:04;5.53;;;3.33;;
76039;SDS011;64736;50.462;4.850;2023-02-28T12:38:43;6.53;;;4.22;;
76039;SDS011;64736;50.462;4.850;2023-02-28T12:41:15;8.40;;;2.95;;
76039;SDS011;64736;50.462;4.850;2023-02-28T12:43:51;5.47;;;2.85;;
76039;SDS011;64736;50.462;4.850;2023-02-28T12:46:51;5.72;;;3.53;;
76039;SDS011;64736;50.462;4.850;2023-02-28T12:49:23;7.00;;;2.97;;
76039;SDS011;64736;50.462;4.850;2023-02-28T12:51:57;5.93;;;3.50;;
76039;SDS011;64736;50.462;4.850;2023-02-28T12:54:40;6.43;;;2.83;;
76039;SDS011;64736;50.462;4.850;2023-02-28T12:59:58;7.38;;;3.22;;
76039;SDS011;64736;50.462;4.850;2023-02-28T13:02:52;5.60;;;3.03;;
76039;SDS011;64736;50.462;4.850;2023-02-28T13:11:02;6.05;;;3.88;;
76039;SDS011;64736;50.462;4.850;2023-02-28T13:13:29;5.70;;;3.85;;
76039;SDS011;64736;50.462;4.850;2023-02-28T13:16:07;7.03;;;4.68;;
76039;SDS011;64736;50.462;4.850;2023-02-28T13:18:52;5.38;;;3.33;;
76039;SDS011;64736;50.462;4.850;2023-02-28T13:21:35;4.68;;;3.25;;
76039;SDS011;64736;50.462;4.850;2023-02-28T13:24:08;6.35;;;3.72;;
76039;SDS011;64736;50.462;4.850;2023-02-28T13:34:35;7.03;;;3.55;;
76039;SDS011;64736;50.462;4.850;2023-02-28T13:39:55;5.38;;;2.80;;
76039;SDS011;64736;50.462;4.850;2023-02-28T13:50:21;5.82;;;3.10;;
76039;SDS011;64736;50.462;4.850;2023-02-28T13:58:42;5.93;;;4.50;;
76039;SDS011;64736;50.462;4.850;2023-02-28T14:06:35;6.13;;;3.83;;
76039;SDS011;64736;50.462;4.850;2023-02-28T14:11:54;5.38;;;3.63;;
76039;SDS011;64736;50.462;4.850;2023-02-28T14:14:54;6.18;;;3.55;;
76039;SDS011;64736;50.462;4.850;2023-02-28T14:17:14;6.53;;;3.83;;
76039;SDS011;64736;50.462;4.850;2023-02-28T14:19:44;6.72;;;3.97;;
76039;SDS011;64736;50.462;4.850;2023-02-28T14:33:33;6.85;;;3.55;;
76039;SDS011;64736;50.462;4.850;2023-02-28T14:36:35;9.43;;;5.43;;
76039;SDS011;64736;50.462;4.850;2023-02-28T14:39:06;5.28;;;3.63;;
76039;SDS011;64736;50.462;4.850;2023-02-28T14:41:40;6.38;;;3.75;;
76039;SDS011;64736;50.462;4.850;2023-02-28T14:44:26;6.90;;;4.28;;
76039;SDS011;64736;50.462;4.850;2023-02-28T14:46:54;6.65;;;4.30;;
76039;SDS011;64736;50.462;4.850;2023-02-28T14:49:24;5.20;;;3.42;;
76039;SDS011;64736;50.462;4.850;2023-02-28T14:52:06;6.93;;;4.80;;
76039;SDS011;64736;50.462;4.850;2023-02-28T14:54:45;6.05;;;4.07;;
76039;SDS011;64736;50.462;4.850;2023-02-28T14:57:38;7.07;;;4.00;;
76039;SDS011;64736;50.462;4.850;2023-02-28T15:00:14;8.93;;;4.10;;
76039;SDS011;64736;50.462;4.850;2023-02-28T15:02:40;6.82;;;3.72;;
76039;SDS011;64736;50.462;4.850;2023-02-28T15:05:17;7.70;;;4.97;;
76039;SDS011;64736;50.462;4.850;2023-02-28T15:07:48;7.10;;;4.30;;
76039;SDS011;64736;50.462;4.850;2023-02-28T15:10:38;6.63;;;3.72;;
76039;SDS011;64736;50.462;4.850;2023-02-28T15:13:11;6.20;;;2.78;;
76039;SDS011;64736;50.462;4.850;2023-02-28T15:15:45;9.10;;;4.63;;
76039;SDS011;64736;50.462;4.850;2023-02-28T15:23:57;9.00;;;5.53;;
76039;SDS011;64736;50.462;4.850;2023-02-28T15:26:39;7.03;;;4.68;;
76039;SDS011;64736;50.462;4.850;2023-02-28T15:29:10;7.03;;;4.97;;
76039;SDS011;64736;50.462;4.850;2023-02-28T15:31:41;9.70;;;5.00;;
76039;SDS011;64736;50.462;4.850;2023-02-28T15:34:42;7.68;;;4.28;;
76039;SDS011;64736;50.462;4.850;2023-02-28T15:39:56;9.15;;;4.90;;
76039;SDS011;64736;50.462;4.850;2023-02-28T15:42:30;11.02;;;7.00;;
76039;SDS011;64736;50.462;4.850;2023-02-28T15:44:57;8.05;;;5.40;;
76039;SDS011;64736;50.462;4.850;2023-02-28T15:47:26;8.45;;;5.55;;
76039;SDS011;64736;50.462;4.850;2023-02-28T15:49:55;8.57;;;5.88;;
76039;SDS011;64736;50.462;4.850;2023-02-28T15:55:11;7.53;;;4.43;;
76039;SDS011;64736;50.462;4.850;2023-02-28T15:57:48;7.68;;;4.75;;
76039;SDS011;64736;50.462;4.850;2023-02-28T16:00:20;8.73;;;5.15;;
76039;SDS011;64736;50.462;4.850;2023-02-28T16:02:49;8.63;;;4.75;;
76039;SDS011;64736;50.462;4.850;2023-02-28T16:05:19;6.47;;;4.18;;
76039;SDS011;64736;50.462;4.850;2023-02-28T16:07:54;8.15;;;5.40;;
76039;SDS011;64736;50.462;4.850;2023-02-28T16:10:21;7.05;;;4.97;;
76039;SDS011;64736;50.462;4.850;2023-02-28T16:12:52;7.10;;;4.97;;
76039;SDS011;64736;50.462;4.850;2023-02-28T16:15:21;7.33;;;4.90;;
76039;SDS011;64736;50.462;4.850;2023-02-28T16:17:48;6.60;;;3.95;;
76039;SDS011;64736;50.462;4.850;2023-02-28T16:20:19;8.98;;;4.00;;
76039;SDS011;64736;50.462;4.850;2023-02-28T16:22:49;7.22;;;5.22;;
76039;SDS011;64736;50.462;4.850;2023-02-28T16:25:16;6.55;;;4.20;;
76039;SDS011;64736;50.462;4.850;2023-02-28T16:27:43;9.10;;;4.20;;
76039;SDS011;64736;50.462;4.850;2023-02-28T16:30:22;7.70;;;4.85;;
76039;SDS011;64736;50.462;4.850;2023-02-28T16:32:50;8.50;;;5.53;;
76039;SDS011;64736;50.462;4.850;2023-02-28T16:35:17;8.45;;;4.20;;
76039;SDS011;64736;50.462;4.850;2023-02-28T16:37:43;6.82;;;3.83;;
76039;SDS011;64736;50.462;4.850;2023-02-28T16:40:16;7.28;;;5.45;;
76039;SDS011;64736;50.462;4.850;2023-02-28T16:42:46;5.88;;;3.80;;
76039;SDS011;64736;50.462;4.850;2023-02-28T16:45:18;7.05;;;3.75;;
76039;SDS011;64736;50.462;4.850;2023-02-28T16:47:46;6.25;;;4.35;;
76039;SDS011;64736;50.462;4.850;2023-02-28T16:50:13;6.63;;;4.32;;
76039;SDS011;64736;50.462;4.850;2023-02-28T16:52:44;5.63;;;3.25;;
76039;SDS011;64736;50.462;4.850;2023-02-28T16:55:10;9.27;;;5.43;;
76039;SDS011;64736;50.462;4.850;2023-02-28T16:57:36;7.22;;;4.03;;
76039;SDS011;64736;50.462;4.850;2023-02-28T17:00:03;8.70;;;3.85;;
76039;SDS011;64736;50.462;4.850;2023-02-28T17:02:33;7.72;;;4.95;;
76039;SDS011;64736;50.462;4.850;2023-02-28T17:04:59;7.78;;;4.88;;
76039;SDS011;64736;50.462;4.850;2023-02-28T17:07:25;8.32;;;5.65;;
76039;SDS011;64736;50.462;4.850;2023-02-28T17:09:51;8.95;;;5.07;;
76039;SDS011;64736;50.462;4.850;2023-02-28T17:12:17;7.43;;;4.50;;
76039;SDS011;64736;50.462;4.850;2023-02-28T17:14:42;7.75;;;5.05;;
76039;SDS011;64736;50.462;4.850;2023-02-28T17:17:09;7.53;;;4.70;;
76039;SDS011;64736;50.462;4.850;2023-02-28T17:19:46;8.73;;;4.95;;
76039;SDS011;64736;50.462;4.850;2023-02-28T17:22:13;9.55;;;4.78;;
76039;SDS011;64736;50.462;4.850;2023-02-28T17:24:39;9.23;;;5.63;;
76039;SDS011;64736;50.462;4.850;2023-02-28T17:27:04;8.75;;;4.82;;
76039;SDS011;64736;50.462;4.850;2023-02-28T17:29:32;9.82;;;5.25;;
76039;SDS011;64736;50.462;4.850;2023-02-28T17:31:59;8.18;;;5.70;;
76039;SDS011;64736;50.462;4.850;2023-02-28T17:34:24;7.28;;;3.47;;
76039;SDS011;64736;50.462;4.850;2023-02-28T17:36:50;9.27;;;4.82;;
76039;SDS011;64736;50.462;4.850;2023-02-28T17:39:17;9.18;;;5.68;;
76039;SDS011;64736;50.462;4.850;2023-02-28T17:41:52;9.70;;;5.00;;
76039;SDS011;64736;50.462;4.850;2023-02-28T17:44:19;10.05;;;5.88;;
76039;SDS011;64736;50.462;4.850;2023-02-28T17:46:47;9.27;;;5.53;;
76039;SDS011;64736;50.462;4.850;2023-02-28T17:49:14;8.93;;;4.72;;
76039;SDS011;64736;50.462;4.850;2023-02-28T17:51:41;7.85;;;5.30;;